Pagrindinis puslapis
METAR-TAF:

METAR-TAF

Oro uostai :

Foz do Iguasu, Parana, Brazilija

platuma: 25-31S, ilguma: 054-35W, Aukštis: 180 m

Dabartinis oras

Ataskaita buvo paskelbta 1 valandą ir 3 minutes, ne 07:00 UTC
Ramus vėjas
Temperatūra 10°C
Drėgmė 82%
Slėgis 1018 hPa
Matomumas 10 km arba daugiau
nėra debesų žemiau 1500 m ir nėra kamuolinių lietaus debesų

METAR: SBFI 220700Z 00000KT CAVOK 10/07 Q1018

Laikas: 05:03 (08:03 UTC)

Prognozė

Ataskaita buvo paskelbta 5 valandos ir 3 minutes, ne 03:00 UTC
Prognozė galioja nuo 22 metu 06 UTC su 23 metu 06 UTC
Vėjas 5 kt iš Pietų
Matomumas 10 km arba daugiau
nėra debesų žemiau 1500 m ir nėra kamuolinių lietaus debesų
Tapsmas
nuo 22 metu 13 UTC su 22 metu 15 UTC
Vėjas 7 kt iš Pietų/Pietryčių
Mažai debesys ne aukštis 2000 ft
Tapsmas
nuo 22 metu 16 UTC su 22 metu 18 UTC
Vėjas 5 kt iš Pietų
Matomumas 10 km arba daugiau
nėra debesų žemiau 1500 m ir nėra kamuolinių lietaus debesų

TAF: SBFI 220300Z 2206/2306 18005KT CAVOK TN15/2206Z TX29/2218Z BECMG 2213/2215 15007KT FEW020 BECMG 2216/2218 19005KT CAVOK RMK PEQ

Orai ataskaitas ir orų prognozės (METAR, TAF).

turimą stotys yra geltonos ir raudonos taškus žemėlapyje.

Perkelti pele per norėdami pamatyti stoties vardą.

Tada spustelėkite, norėdami matyti oro stebėjimo ir prognozės.

Norėdami pakeisti žemėlapį: spustelėkite ant žalios mygtukų su juodo kryžiaus žemyn,; žalią mygtuką su brūkšneliu, jei norite nutolinti; arba žalių rodyklių gretimoms žemėlapius.


METAR-TAF: